createdAt,value
2018-01-26T00:03:00.375Z,2.07
2018-01-26T00:06:02.255Z,2.70
2018-01-26T00:09:04.196Z,2.30
2018-01-26T00:12:06.072Z,2.10
2018-01-26T00:15:07.943Z,2.80
2018-01-26T00:18:09.811Z,2.30
2018-01-26T00:21:11.699Z,2.17
2018-01-26T00:24:13.579Z,2.30
2018-01-26T00:27:15.445Z,2.20
2018-01-26T00:30:17.308Z,2.50
2018-01-26T00:33:19.200Z,2.10
2018-01-26T00:36:21.067Z,2.20
2018-01-26T00:39:22.948Z,1.73
2018-01-26T00:42:24.815Z,2.10
2018-01-26T00:45:26.687Z,2.17
2018-01-26T00:48:28.558Z,2.27
2018-01-26T00:51:30.483Z,2.30
2018-01-26T00:54:32.323Z,2.17
2018-01-26T00:57:34.203Z,2.30
2018-01-26T01:00:36.075Z,2.23
2018-01-26T01:03:37.959Z,2.10
2018-01-26T01:06:39.847Z,2.50
2018-01-26T01:09:41.723Z,2.30
2018-01-26T01:12:43.607Z,2.20
2018-01-26T01:15:45.474Z,2.47
2018-01-26T01:18:47.362Z,1.90
2018-01-26T01:21:49.248Z,2.17
2018-01-26T01:24:51.135Z,2.20
2018-01-26T01:27:53.007Z,2.10
2018-01-26T01:30:54.894Z,2.50
2018-01-26T01:33:56.770Z,2.40
2018-01-26T01:36:58.647Z,2.23
2018-01-26T01:40:00.581Z,2.40
2018-01-26T01:43:02.462Z,2.27
2018-01-26T01:46:04.367Z,2.30
2018-01-26T01:49:06.259Z,1.80
2018-01-26T01:52:08.122Z,1.90
2018-01-26T01:55:09.999Z,2.20
2018-01-26T01:58:11.874Z,2.30
2018-01-26T02:01:13.746Z,2.13
2018-01-26T02:04:15.638Z,2.03
2018-01-26T02:07:17.503Z,2.20
2018-01-26T02:10:19.383Z,2.00
2018-01-26T02:13:21.256Z,2.10
2018-01-26T02:16:23.139Z,1.90
2018-01-26T02:19:25.028Z,2.27
2018-01-26T02:22:26.915Z,2.23
2018-01-26T02:25:34.087Z,2.07
2018-01-26T02:28:36.003Z,2.10
2018-01-26T02:31:37.932Z,1.90
2018-01-26T02:34:39.859Z,2.07
2018-01-26T02:37:47.171Z,1.90
2018-01-26T02:40:49.046Z,1.90
2018-01-26T02:43:50.915Z,1.77
2018-01-26T02:46:52.791Z,1.90
2018-01-26T02:49:54.675Z,1.80
2018-01-26T02:52:56.551Z,2.00
2018-01-26T02:55:58.414Z,1.80
2018-01-26T02:59:00.315Z,1.73
2018-01-26T03:02:02.199Z,1.90
2018-01-26T03:05:04.071Z,2.10
2018-01-26T03:08:05.954Z,1.70
2018-01-26T03:11:07.851Z,1.83
2018-01-26T03:14:09.723Z,1.80
2018-01-26T03:17:11.610Z,1.83
2018-01-26T03:20:13.484Z,1.52
2018-01-26T03:23:15.355Z,1.80
2018-01-26T03:26:17.261Z,1.70
2018-01-26T03:29:19.139Z,1.77
2018-01-26T03:38:36.064Z,1.80
2018-01-26T03:41:37.943Z,1.70
2018-01-26T03:44:39.814Z,1.63
2018-01-26T03:47:41.692Z,1.70
2018-01-26T03:50:43.567Z,1.77
2018-01-26T03:53:45.451Z,1.77
2018-01-26T03:56:47.331Z,1.60
2018-01-26T03:59:49.279Z,1.60
2018-01-26T04:02:51.163Z,1.73
2018-01-26T04:05:53.050Z,1.60
2018-01-26T04:08:54.935Z,1.50
2018-01-26T04:11:56.806Z,1.50
2018-01-26T04:14:58.679Z,1.80
2018-01-26T04:18:00.550Z,1.60
2018-01-26T04:21:02.431Z,1.70
2018-01-26T04:24:04.318Z,1.47
2018-01-26T04:27:06.199Z,1.43
2018-01-26T04:30:08.086Z,1.53
2018-01-26T04:33:09.951Z,1.40
2018-01-26T04:36:11.826Z,1.60
2018-01-26T04:39:13.695Z,1.60
2018-01-26T04:42:15.568Z,1.50
2018-01-26T04:45:17.443Z,1.70
2018-01-26T04:48:19.312Z,1.50
2018-01-26T04:51:21.184Z,1.40
2018-01-26T04:54:23.059Z,1.50
2018-01-26T04:57:24.939Z,1.60
2018-01-26T05:00:26.843Z,1.43
2018-01-26T05:03:28.730Z,1.57
2018-01-26T05:06:30.592Z,1.40
2018-01-26T05:09:32.479Z,1.23
2018-01-26T05:12:34.347Z,1.43
2018-01-26T05:15:36.266Z,1.60
2018-01-26T05:18:38.139Z,1.35
2018-01-26T05:21:40.020Z,1.33
2018-01-26T05:24:41.899Z,1.20
2018-01-26T05:27:43.768Z,1.17
2018-01-26T05:30:45.667Z,1.20
2018-01-26T05:33:47.556Z,1.23
2018-01-26T05:36:49.448Z,1.20
2018-01-26T05:39:51.352Z,1.30
2018-01-26T05:42:53.214Z,1.22
2018-01-26T05:45:55.098Z,1.20
2018-01-26T05:48:56.970Z,1.30
2018-01-26T05:51:58.867Z,1.37
2018-01-26T05:55:00.739Z,1.00
2018-01-26T05:58:02.615Z,1.20
2018-01-26T06:01:04.480Z,1.20
2018-01-26T06:04:06.355Z,0.90
2018-01-26T06:07:08.230Z,1.20
2018-01-26T06:10:10.119Z,1.17
2018-01-26T06:13:12.016Z,1.20
2018-01-26T06:16:13.891Z,1.20
2018-01-26T06:19:15.770Z,1.17
2018-01-26T06:22:17.683Z,1.10
2018-01-26T06:25:19.764Z,1.00
2018-01-26T06:28:21.655Z,1.20
2018-01-26T06:31:23.526Z,1.10
2018-01-26T06:34:25.419Z,1.20
2018-01-26T06:37:27.308Z,0.90
2018-01-26T06:40:29.183Z,1.10
2018-01-26T06:43:31.063Z,1.00
2018-01-26T06:46:32.947Z,0.95
2018-01-26T06:49:34.871Z,0.90
2018-01-26T06:52:36.739Z,0.90
2018-01-26T06:55:38.629Z,1.00
2018-01-26T06:58:40.501Z,0.98
2018-01-26T07:01:42.383Z,1.00
2018-01-26T07:04:44.272Z,1.07
2018-01-26T07:07:46.159Z,1.10
2018-01-26T07:10:48.048Z,1.15
2018-01-26T07:13:50.290Z,0.85
2018-01-26T07:16:52.166Z,1.00
2018-01-26T07:19:54.046Z,1.20
2018-01-26T07:22:55.923Z,1.00
2018-01-26T07:25:57.793Z,1.20
2018-01-26T07:28:59.684Z,1.10
2018-01-26T07:32:01.584Z,1.20
2018-01-26T07:35:03.471Z,0.90
2018-01-26T07:38:05.353Z,0.90
2018-01-26T07:41:07.279Z,0.85
2018-01-26T07:44:09.174Z,1.00
2018-01-26T07:47:11.052Z,0.90
2018-01-26T07:50:12.935Z,1.00
2018-01-26T07:53:14.807Z,0.80
2018-01-26T07:56:16.681Z,0.80
2018-01-26T07:59:18.551Z,1.00
2018-01-26T08:02:20.427Z,0.95
2018-01-26T08:05:22.315Z,1.00
2018-01-26T08:08:24.186Z,0.90
2018-01-26T08:11:26.083Z,1.00
2018-01-26T08:14:27.971Z,0.90
2018-01-26T08:17:29.847Z,1.20
2018-01-26T08:20:31.736Z,1.00
2018-01-26T08:23:33.627Z,0.95
2018-01-26T08:26:35.494Z,1.00
2018-01-26T08:29:37.464Z,0.80
2018-01-26T08:32:39.395Z,1.20
2018-01-26T08:35:41.272Z,0.95
2018-01-26T08:38:43.155Z,1.10
2018-01-26T08:41:45.031Z,1.00
2018-01-26T08:44:46.910Z,1.00
2018-01-26T08:47:48.810Z,1.20
2018-01-26T08:50:50.680Z,1.10
2018-01-26T08:53:52.568Z,1.20
2018-01-26T08:56:54.450Z,1.10
2018-01-26T08:59:56.328Z,1.20
2018-01-26T09:02:58.206Z,1.07
2018-01-26T09:06:00.087Z,1.00
2018-01-26T09:09:01.971Z,1.00
2018-01-26T09:12:03.924Z,1.00
2018-01-26T09:15:05.816Z,1.20
2018-01-26T09:18:07.709Z,0.85
2018-01-26T09:21:09.583Z,1.20
2018-01-26T09:24:11.476Z,1.00
2018-01-26T09:27:13.353Z,0.98
2018-01-26T09:30:15.223Z,1.02
2018-01-26T09:33:17.194Z,1.00
2018-01-26T09:36:19.044Z,1.10
2018-01-26T09:39:20.931Z,1.00
2018-01-26T09:42:22.806Z,1.40
2018-01-26T09:45:24.691Z,1.00
2018-01-26T09:48:26.558Z,1.10
2018-01-26T09:51:28.443Z,0.97
2018-01-26T09:54:30.323Z,0.80
2018-01-26T09:57:32.206Z,1.33
2018-01-26T10:00:34.099Z,1.00
2018-01-26T10:03:35.975Z,1.13
2018-01-26T10:06:37.849Z,0.90
2018-01-26T10:09:39.722Z,0.97
2018-01-26T10:12:41.600Z,1.10
2018-01-26T10:15:43.481Z,1.05
2018-01-26T10:18:45.348Z,1.10
2018-01-26T10:21:47.230Z,1.07
2018-01-26T10:24:49.119Z,1.17
2018-01-26T10:27:52.931Z,1.30
2018-01-26T10:30:54.843Z,1.10
2018-01-26T10:33:56.712Z,1.15
2018-01-26T10:36:58.639Z,1.00
2018-01-26T10:40:00.542Z,1.00
2018-01-26T10:43:02.419Z,1.02
2018-01-26T10:46:04.311Z,0.88
2018-01-26T10:49:06.182Z,1.00
2018-01-26T10:52:08.067Z,1.00
2018-01-26T10:55:09.951Z,1.20
2018-01-26T10:58:11.823Z,1.30
2018-01-26T11:01:13.702Z,0.90
2018-01-26T11:04:15.575Z,1.00
2018-01-26T11:07:17.487Z,0.90
2018-01-26T11:10:19.362Z,1.35
2018-01-26T11:13:21.242Z,0.90
2018-01-26T11:16:23.112Z,0.80
2018-01-26T11:19:25.000Z,1.10
2018-01-26T11:22:26.883Z,1.00
2018-01-26T11:25:28.768Z,0.82
2018-01-26T11:28:30.655Z,1.00
2018-01-26T11:31:32.523Z,1.00
2018-01-26T11:34:34.412Z,1.12
2018-01-26T11:37:36.295Z,0.95
2018-01-26T11:40:38.189Z,1.00
2018-01-26T11:43:40.054Z,0.90
2018-01-26T11:46:41.929Z,1.10
2018-01-26T11:49:43.803Z,1.00
2018-01-26T11:52:45.675Z,1.20
2018-01-26T11:55:47.579Z,0.90
2018-01-26T11:58:49.468Z,0.90
2018-01-26T12:01:51.347Z,1.10
2018-01-26T12:04:53.219Z,1.03
2018-01-26T12:07:55.103Z,1.10
2018-01-26T12:10:57.039Z,1.17
2018-01-26T12:13:58.906Z,1.17
2018-01-26T12:17:00.779Z,1.10
2018-01-26T12:20:03.206Z,1.10
2018-01-26T12:23:06.407Z,0.80
2018-01-26T12:26:08.279Z,1.00
2018-01-26T12:29:10.149Z,1.00
2018-01-26T12:32:12.038Z,0.88
2018-01-26T12:35:13.962Z,0.90
2018-01-26T12:38:15.830Z,0.93
2018-01-26T12:41:17.771Z,1.02
2018-01-26T12:44:19.635Z,1.10
2018-01-26T12:47:21.522Z,0.97
2018-01-26T12:50:23.455Z,1.20
2018-01-26T12:53:25.408Z,1.17
2018-01-26T12:56:27.335Z,0.90
2018-01-26T12:59:29.264Z,1.00
2018-01-26T13:02:31.298Z,0.90
2018-01-26T13:05:33.192Z,1.00
2018-01-26T13:08:35.131Z,1.07
2018-01-26T13:11:37.026Z,0.93
2018-01-26T13:14:38.991Z,1.27
2018-01-26T13:17:40.963Z,1.10
2018-01-26T13:20:42.855Z,1.17
2018-01-26T13:23:44.763Z,2.02
2018-01-26T13:26:46.687Z,1.70
2018-01-26T13:29:48.662Z,1.40
2018-01-26T13:32:50.534Z,1.33
2018-01-26T13:35:52.419Z,1.37
2018-01-26T13:38:54.335Z,1.70
2018-01-26T13:41:56.210Z,1.45
2018-01-26T13:44:58.102Z,1.12
2018-01-26T13:48:00.013Z,1.52
2018-01-26T13:51:01.897Z,1.50
2018-01-26T13:54:03.786Z,2.00
2018-01-26T13:57:05.715Z,1.62
2018-01-26T14:00:07.599Z,1.40
2018-01-26T14:03:09.595Z,1.50
2018-01-26T14:06:11.531Z,1.50
2018-01-26T14:09:13.440Z,1.50
2018-01-26T14:12:15.327Z,1.33
2018-01-26T14:15:17.206Z,1.20
2018-01-26T14:18:19.091Z,1.57
2018-01-26T14:21:20.974Z,1.30
2018-01-26T14:24:22.859Z,1.55
2018-01-26T14:27:24.760Z,1.70
2018-01-26T14:30:26.634Z,1.60
2018-01-26T14:33:28.510Z,1.02
2018-01-26T14:36:30.392Z,1.40
2018-01-26T14:39:32.390Z,1.40
2018-01-26T14:42:34.387Z,1.20
2018-01-26T14:45:36.372Z,1.12
2018-01-26T14:48:38.278Z,1.20
2018-01-26T14:51:40.163Z,1.20
2018-01-26T14:54:42.071Z,1.30
2018-01-26T14:57:43.967Z,1.30
2018-01-26T15:00:45.963Z,1.50
2018-01-26T15:03:47.860Z,1.13
2018-01-26T15:06:49.855Z,1.40
2018-01-26T15:09:53.344Z,1.35
2018-01-26T15:12:55.288Z,1.40
2018-01-26T15:15:57.187Z,1.30
2018-01-26T15:18:59.116Z,1.05
2018-01-26T15:22:01.078Z,1.40
2018-01-26T15:25:02.987Z,1.27
2018-01-26T15:28:04.888Z,1.10
2018-01-26T15:31:06.879Z,1.30
2018-01-26T15:34:08.872Z,1.30
2018-01-26T15:37:10.780Z,1.17
2018-01-26T15:40:12.771Z,1.33
2018-01-26T15:43:14.773Z,1.10
2018-01-26T15:46:16.762Z,1.20
2018-01-26T15:49:18.751Z,1.37
2018-01-26T15:52:20.665Z,1.20
2018-01-26T15:55:22.643Z,1.20
2018-01-26T15:58:25.570Z,1.27
2018-01-26T16:01:27.463Z,1.20
2018-01-26T16:04:29.331Z,1.15
2018-01-26T16:07:31.417Z,1.20
2018-01-26T16:10:33.294Z,1.30
2018-01-26T16:13:35.203Z,1.15
2018-01-26T16:16:37.118Z,1.20
2018-01-26T16:19:39.032Z,1.20
2018-01-26T16:22:40.906Z,1.20
2018-01-26T16:25:42.799Z,1.25
2018-01-26T16:28:44.778Z,1.25
2018-01-26T16:31:46.811Z,1.25
2018-01-26T16:34:48.763Z,1.17
2018-01-26T16:37:50.859Z,1.00
2018-01-26T16:40:52.847Z,1.22
2018-01-26T16:43:54.760Z,1.03
2018-01-26T16:46:56.750Z,1.10
2018-01-26T16:49:58.642Z,1.27
2018-01-26T16:53:00.643Z,1.30
2018-01-26T16:56:02.629Z,1.00
2018-01-26T16:59:04.530Z,1.30
2018-01-26T17:02:06.518Z,1.30
2018-01-26T17:05:08.427Z,1.10
2018-01-26T17:08:10.914Z,1.17
2018-01-26T17:11:12.855Z,1.00
2018-01-26T17:14:14.755Z,1.20
2018-01-26T17:17:16.743Z,1.10
2018-01-26T17:20:18.634Z,1.00
2018-01-26T17:23:20.562Z,1.10
2018-01-26T17:26:22.444Z,1.50
2018-01-26T17:29:24.346Z,1.20
2018-01-26T17:32:26.264Z,1.25
2018-01-26T17:35:28.204Z,1.22
2018-01-26T17:38:30.123Z,1.00
2018-01-26T17:41:32.091Z,1.23
2018-01-26T17:44:34.017Z,1.20
2018-01-26T17:47:36.005Z,1.33
2018-01-26T17:50:37.963Z,1.10
2018-01-26T17:53:39.915Z,1.40
2018-01-26T17:56:41.898Z,1.50
2018-01-26T17:59:43.906Z,1.60
2018-01-26T18:02:45.896Z,1.50
2018-01-26T18:05:47.807Z,1.65
2018-01-26T18:08:49.786Z,1.60
2018-01-26T18:11:51.711Z,1.52
2018-01-26T18:14:53.683Z,1.67
2018-01-26T18:17:55.699Z,2.30
2018-01-26T18:20:57.607Z,1.98
2018-01-26T18:23:59.542Z,2.00
2018-01-26T18:27:02.546Z,1.73
2018-01-26T18:30:04.539Z,2.10
2018-01-26T18:33:06.451Z,1.87
2018-01-26T18:36:08.363Z,2.10
2018-01-26T18:39:10.353Z,1.73
2018-01-26T18:42:12.259Z,2.00
2018-01-26T18:45:14.135Z,1.70
2018-01-26T18:48:16.030Z,1.73
2018-01-26T18:51:17.915Z,1.80
2018-01-26T18:54:19.785Z,1.80
2018-01-26T18:57:21.668Z,1.60
2018-01-26T19:00:23.556Z,1.57
2018-01-26T19:03:25.450Z,1.80
2018-01-26T19:06:27.410Z,1.80
2018-01-26T19:09:29.391Z,1.80
2018-01-26T19:12:32.211Z,1.80
2018-01-26T19:15:34.242Z,1.60
2018-01-26T19:18:36.208Z,1.60
2018-01-26T19:21:38.091Z,1.67
2018-01-26T19:24:40.004Z,1.77
2018-01-26T19:27:41.879Z,1.50
2018-01-26T19:30:43.763Z,1.53
2018-01-26T19:33:45.691Z,1.20
2018-01-26T19:36:47.587Z,1.30
2018-01-26T19:39:49.491Z,1.47
2018-01-26T19:42:51.375Z,1.70
2018-01-26T19:45:53.284Z,1.60
2018-01-26T19:48:55.183Z,1.50
2018-01-26T19:51:57.228Z,1.30
2018-01-26T19:55:00.203Z,1.50
2018-01-26T19:58:02.145Z,1.40
2018-01-26T20:01:04.044Z,1.57
2018-01-26T20:04:05.987Z,1.43
2018-01-26T20:07:43.058Z,1.53
2018-01-26T20:10:45.059Z,1.50
2018-01-26T20:13:46.958Z,1.30
2018-01-26T20:16:48.863Z,1.53
2018-01-26T20:19:50.791Z,1.67
2018-01-26T20:22:52.821Z,1.30
2018-01-26T20:25:54.803Z,1.40
2018-01-26T20:28:56.682Z,1.67
2018-01-26T20:31:58.603Z,1.57
2018-01-26T20:35:00.487Z,1.40
2018-01-26T20:38:02.382Z,1.50
2018-01-26T20:41:04.292Z,1.45
2018-01-26T20:44:06.287Z,1.53
2018-01-26T20:47:08.187Z,1.63
2018-01-26T20:50:10.187Z,1.60
2018-01-26T20:53:12.060Z,1.50
2018-01-26T20:56:13.999Z,1.63
2018-01-26T20:59:15.990Z,1.37
2018-01-26T21:02:17.887Z,1.37
2018-01-26T21:05:19.796Z,1.30
2018-01-26T21:08:21.691Z,1.70
2018-01-26T21:11:23.588Z,1.70
2018-01-26T21:14:25.575Z,1.50
2018-01-26T21:17:27.498Z,1.50
2018-01-26T21:20:29.471Z,1.40
2018-01-26T21:23:31.338Z,1.40
2018-01-26T21:26:33.322Z,1.50
2018-01-26T21:29:35.287Z,1.60
2018-01-26T21:32:37.207Z,1.40
2018-01-26T21:35:39.100Z,1.55
2018-01-26T21:38:40.985Z,1.57
2018-01-26T21:41:42.851Z,1.77
2018-01-26T21:44:44.727Z,1.70
2018-01-26T21:47:46.595Z,1.30
2018-01-26T21:50:48.463Z,1.50
2018-01-26T21:53:50.331Z,1.40
2018-01-26T21:56:52.218Z,1.57
2018-01-26T21:59:54.103Z,1.50
2018-01-26T22:02:55.966Z,1.27
2018-01-26T22:05:58.127Z,1.43
2018-01-26T22:09:00.009Z,1.37
2018-01-26T22:12:01.878Z,1.50
2018-01-26T22:15:03.750Z,1.37
2018-01-26T22:18:05.631Z,1.40
2018-01-26T22:21:07.514Z,1.50
2018-01-26T22:24:09.399Z,1.60
2018-01-26T22:27:11.299Z,1.40
2018-01-26T22:30:13.183Z,1.50
2018-01-26T22:33:15.048Z,1.60
2018-01-26T22:36:16.920Z,1.53
2018-01-26T22:39:18.791Z,1.47
2018-01-26T22:42:20.658Z,1.70
2018-01-26T22:45:22.547Z,1.50
2018-01-26T22:48:24.418Z,1.40
2018-01-26T22:51:26.311Z,1.40
2018-01-26T22:54:28.471Z,1.30
2018-01-26T22:57:30.366Z,1.67
2018-01-26T23:00:32.239Z,1.45
2018-01-26T23:03:34.139Z,1.47
2018-01-26T23:06:36.072Z,1.50
2018-01-26T23:09:37.899Z,1.57
2018-01-26T23:12:39.766Z,1.30
2018-01-26T23:15:41.647Z,1.40
2018-01-26T23:18:43.567Z,1.40
2018-01-26T23:21:45.434Z,1.50
2018-01-26T23:24:47.324Z,1.63
2018-01-26T23:27:49.203Z,1.43
2018-01-26T23:30:51.083Z,1.40
2018-01-26T23:33:52.959Z,1.50
2018-01-26T23:36:54.853Z,1.60
2018-01-26T23:39:56.742Z,1.60
2018-01-26T23:42:58.627Z,1.40
2018-01-26T23:46:00.503Z,1.50
2018-01-26T23:49:02.463Z,1.70
2018-01-26T23:52:04.346Z,1.47
2018-01-26T23:55:06.218Z,1.45
2018-01-26T23:58:08.096Z,1.40
